Britney Lee — WDC2895 — position and weather

sailwx.info

Track history (hours):
 
Tides and Currents Weather Stations Pressure Air Temp Water Temp Dewpoint Dewpoint Depression Visibility Wind Speed Wind Dir Waves Ship Positions

Britney Lee

Owner: Western Rivers Boat Management, Inc., Paducah, KY. More information available from US FCC via Universal Licensing System and Coast Guard Vessel Documentation Center.

Last reported at 2017-Mar-24 14:25 UTC. Time now 2017-Mar-28 23:23 UTC.
Position N 31°59' W 091°06'.

Length 44 m; draft 3 m.

Type: Tow > 200 m length. MMSI: 367129650.

Date/timePositionNaut miles runAvg speedWind from/ knotsBaromVisibWave heightAir tempDewpointWater temp
2017-Mar-24 14:25N 31°59' W 091°06'6 6.4
2017-Mar-24 13:31N 32°05' W 091°04'3 3.4
2017-Mar-24 12:33N 32°08' W 091°06'5 4.9
2017-Mar-24 11:33N 32°08' W 091°00'7 7.2
2017-Mar-24 10:33N 32°15' W 090°59'6 6.1
2017-Mar-24 09:33N 32°21' W 090°55'6 6.0
2017-Mar-24 08:33N 32°25' W 091°00'7 7.5
2017-Mar-24 07:33N 32°30' W 091°07'7 6.9
2017-Mar-24 06:33N 32°37' W 091°09'  
Track history (hours):
 
Tides and Currents Weather Stations Pressure Air Temp Water Temp Dewpoint Dewpoint Depression Visibility Wind Speed Wind Dir Waves Ship Positions

Britney Lee

Owner: Western Rivers Boat Management, Inc., Paducah, KY. More information available from US FCC via Universal Licensing System and Coast Guard Vessel Documentation Center.

Last reported at 2017-Mar-24 14:25 UTC. Time now 2017-Mar-28 23:23 UTC.
Position N 31°59' W 091°06'.

Length 44 m; draft 3 m.

Type: Tow > 200 m length. MMSI: 367129650.

Date/timePositionNaut miles runAvg speedWind from/ knotsBaromVisibWave heightAir tempDewpointWater temp
2017-Mar-24 14:25N 31°59' W 091°06'6 6.4
2017-Mar-24 13:31N 32°05' W 091°04'3 3.4
2017-Mar-24 12:33N 32°08' W 091°06'5 4.9
2017-Mar-24 11:33N 32°08' W 091°00'7 7.2
2017-Mar-24 10:33N 32°15' W 090°59'6 6.1
2017-Mar-24 09:33N 32°21' W 090°55'6 6.0
2017-Mar-24 08:33N 32°25' W 091°00'7 7.5
2017-Mar-24 07:33N 32°30' W 091°07'7 6.9
2017-Mar-24 06:33N 32°37' W 091°09'  

Dump ship's entire track history